createdAt,value
2023-05-14T00:00:09.947Z,24.84
2023-05-14T00:02:15.024Z,24.84
2023-05-14T00:04:20.426Z,24.82
2023-05-14T00:06:25.796Z,24.84
2023-05-14T00:08:31.046Z,24.83
2023-05-14T00:10:36.335Z,24.82
2023-05-14T00:12:41.584Z,24.82
2023-05-14T00:14:46.717Z,24.81
2023-05-14T00:16:51.779Z,24.8
2023-05-14T00:18:56.953Z,24.8
2023-05-14T00:21:02.201Z,24.78
2023-05-14T00:23:07.289Z,24.8
2023-05-14T00:25:12.376Z,24.77
2023-05-14T00:27:17.564Z,24.76
2023-05-14T00:29:22.758Z,24.75
2023-05-14T00:31:27.817Z,24.75
2023-05-14T00:33:33.064Z,24.74
2023-05-14T00:35:38.188Z,24.71
2023-05-14T00:37:43.311Z,24.73
2023-05-14T00:39:48.506Z,24.71
2023-05-14T00:41:53.693Z,24.71
2023-05-14T00:43:58.945Z,24.71
2023-05-14T00:46:04.100Z,24.71
2023-05-14T00:48:09.192Z,24.72
2023-05-14T00:50:14.327Z,24.71
2023-05-14T00:52:19.545Z,24.7
2023-05-14T00:54:24.614Z,24.69
2023-05-14T00:56:29.768Z,24.68
2023-05-14T00:58:35.076Z,24.67
2023-05-14T01:00:40.138Z,24.67
2023-05-14T01:02:45.508Z,24.66
2023-05-14T01:04:50.974Z,24.67
2023-05-14T01:06:56.205Z,24.68
2023-05-14T01:09:01.343Z,24.66
2023-05-14T01:11:06.385Z,24.66
2023-05-14T01:13:11.603Z,24.66
2023-05-14T01:15:16.707Z,24.65
2023-05-14T01:17:21.800Z,24.66
2023-05-14T01:19:26.974Z,24.65
2023-05-14T01:21:32.133Z,24.63
2023-05-14T01:23:37.183Z,24.64
2023-05-14T01:25:42.281Z,24.63
2023-05-14T01:27:47.396Z,24.62
2023-05-14T01:29:52.502Z,24.64
2023-05-14T01:31:57.612Z,24.65
2023-05-14T01:34:02.947Z,24.65
2023-05-14T01:36:08.130Z,24.65
2023-05-14T01:38:13.178Z,24.66
2023-05-14T01:40:18.269Z,24.67
2023-05-14T01:42:23.370Z,24.68
2023-05-14T01:44:28.473Z,24.68
2023-05-14T01:46:33.788Z,24.68
2023-05-14T01:48:39.243Z,24.68
2023-05-14T01:50:44.454Z,24.66
2023-05-14T01:52:49.733Z,24.66
2023-05-14T01:54:54.796Z,24.66
2023-05-14T01:57:00.061Z,24.66
2023-05-14T01:59:05.274Z,24.67
2023-05-14T02:01:11.064Z,24.67
2023-05-14T02:03:16.294Z,24.66
2023-05-14T02:05:21.408Z,24.67
2023-05-14T02:07:26.500Z,24.67
2023-05-14T02:09:31.585Z,24.65
2023-05-14T02:11:36.713Z,24.64
2023-05-14T02:13:41.846Z,24.64
2023-05-14T02:15:46.944Z,24.62
2023-05-14T02:17:52.116Z,24.62
2023-05-14T02:19:57.351Z,24.61
2023-05-14T02:22:02.434Z,24.6
2023-05-14T02:24:07.484Z,24.59
2023-05-14T02:26:13.055Z,24.59
2023-05-14T02:28:18.181Z,24.58
2023-05-14T02:30:23.315Z,24.57
2023-05-14T02:32:29.092Z,24.58
2023-05-14T02:34:34.496Z,24.57
2023-05-14T02:36:39.607Z,24.57
2023-05-14T02:38:44.697Z,24.56
2023-05-14T02:40:49.759Z,24.55
2023-05-14T02:42:54.853Z,24.55
2023-05-14T02:44:59.961Z,24.53
2023-05-14T02:47:05.040Z,24.53
2023-05-14T02:49:10.353Z,24.52
2023-05-14T02:51:15.420Z,24.5
2023-05-14T02:53:20.548Z,24.5
2023-05-14T02:55:25.610Z,24.48
2023-05-14T02:57:30.685Z,24.47
2023-05-14T02:59:35.796Z,24.48
2023-05-14T03:01:42.246Z,24.48
2023-05-14T03:03:49.040Z,24.47
2023-05-14T03:05:55.168Z,24.46
2023-05-14T03:08:00.317Z,24.44
2023-05-14T03:10:05.488Z,24.43
2023-05-14T03:13:07.290Z,24.42
2023-05-14T03:15:12.428Z,24.42
2023-05-14T03:17:17.546Z,24.38
2023-05-14T03:19:22.692Z,24.37
2023-05-14T03:21:27.779Z,24.37
2023-05-14T03:23:32.854Z,24.38
2023-05-14T03:25:38.164Z,24.38
2023-05-14T03:27:43.258Z,24.39
2023-05-14T03:29:48.408Z,24.39
2023-05-14T03:31:53.494Z,24.39
2023-05-14T03:33:58.552Z,24.38
2023-05-14T03:36:03.724Z,24.39
2023-05-14T03:38:08.802Z,24.4
2023-05-14T03:40:13.958Z,24.4
2023-05-14T03:42:19.152Z,24.39
2023-05-14T03:44:24.228Z,24.38
2023-05-14T03:46:29.437Z,24.39
2023-05-14T03:48:34.526Z,24.4
2023-05-14T03:50:39.722Z,24.4
2023-05-14T03:52:44.827Z,24.37
2023-05-14T03:54:49.896Z,24.37
2023-05-14T03:56:55.086Z,24.35
2023-05-14T03:59:00.163Z,24.35
2023-05-14T04:01:05.276Z,24.35
2023-05-14T04:03:10.406Z,24.33
2023-05-14T04:05:15.945Z,24.33
2023-05-14T04:07:21.639Z,24.31
2023-05-14T04:09:26.709Z,24.3
2023-05-14T04:11:31.775Z,24.29
2023-05-14T04:13:36.859Z,24.27
2023-05-14T04:15:42.178Z,24.27
2023-05-14T04:17:47.345Z,24.25
2023-05-14T04:19:52.957Z,24.25
2023-05-14T04:21:58.124Z,24.24
2023-05-14T04:24:03.247Z,24.24
2023-05-14T04:26:08.335Z,24.23
2023-05-14T04:28:13.430Z,24.22
2023-05-14T04:30:18.818Z,24.22
2023-05-14T04:32:24.727Z,24.22
2023-05-14T04:34:29.876Z,24.24
2023-05-14T04:36:34.965Z,24.25
2023-05-14T04:38:40.098Z,24.26
2023-05-14T04:40:45.183Z,24.26
2023-05-14T04:42:50.244Z,24.26
2023-05-14T04:44:55.444Z,24.26
2023-05-14T04:47:00.483Z,24.26
2023-05-14T04:49:05.633Z,24.27
2023-05-14T04:51:10.863Z,24.27
2023-05-14T04:53:15.984Z,24.25
2023-05-14T04:55:21.046Z,24.27
2023-05-14T04:57:26.225Z,24.26
2023-05-14T04:59:31.494Z,24.28
2023-05-14T05:01:36.668Z,24.27
2023-05-14T05:03:42.143Z,24.26
2023-05-14T05:05:47.579Z,24.29
2023-05-14T05:07:52.671Z,24.3
2023-05-14T05:09:57.834Z,24.3
2023-05-14T05:12:03.039Z,24.31
2023-05-14T05:14:08.158Z,24.33
2023-05-14T05:16:13.223Z,24.33
2023-05-14T05:18:18.729Z,24.32
2023-05-14T05:20:24.019Z,24.33
2023-05-14T05:22:29.613Z,24.34
2023-05-14T05:24:34.699Z,24.33
2023-05-14T05:26:40.003Z,24.33
2023-05-14T05:28:45.111Z,24.34
2023-05-14T05:30:50.200Z,24.34
2023-05-14T05:32:55.625Z,24.36
2023-05-14T05:35:00.995Z,24.36
2023-05-14T05:37:06.251Z,24.36
2023-05-14T05:39:11.457Z,24.37
2023-05-14T05:41:16.577Z,24.36
2023-05-14T05:43:21.629Z,24.36
2023-05-14T05:45:26.669Z,24.37
2023-05-14T05:47:31.901Z,24.37
2023-05-14T05:49:37.164Z,24.36
2023-05-14T05:51:42.345Z,24.37
2023-05-14T05:53:47.571Z,24.39
2023-05-14T05:55:52.674Z,24.4
2023-05-14T05:57:57.916Z,24.4
2023-05-14T06:00:03.017Z,24.41
2023-05-14T06:02:08.183Z,24.4
2023-05-14T06:04:13.608Z,24.38
2023-05-14T06:06:18.800Z,24.4
2023-05-14T06:08:23.864Z,24.39
2023-05-14T06:10:29.103Z,24.37
2023-05-14T06:12:34.356Z,24.35
2023-05-14T06:14:39.515Z,24.34
2023-05-14T06:16:44.663Z,24.37
2023-05-14T06:18:49.950Z,24.36
2023-05-14T06:20:55.354Z,24.37
2023-05-14T06:23:00.489Z,24.36
2023-05-14T06:25:05.584Z,24.35
2023-05-14T06:27:10.738Z,24.36
2023-05-14T06:29:16.080Z,24.37
2023-05-14T06:31:21.238Z,24.38
2023-05-14T06:33:26.560Z,24.36
2023-05-14T06:35:31.623Z,24.36
2023-05-14T06:37:36.801Z,24.37
2023-05-14T06:39:41.896Z,24.38
2023-05-14T06:41:46.926Z,24.38
2023-05-14T06:43:52.004Z,24.37
2023-05-14T06:45:57.167Z,24.38
2023-05-14T06:48:02.377Z,24.41
2023-05-14T06:50:09.493Z,24.41
2023-05-14T06:52:15.826Z,24.42
2023-05-14T06:54:20.881Z,24.41
2023-05-14T06:56:26.223Z,24.39
2023-05-14T06:58:31.273Z,24.4
2023-05-14T07:00:36.332Z,24.4
2023-05-14T07:02:41.643Z,24.42
2023-05-14T07:04:47.014Z,24.43
2023-05-14T07:06:52.628Z,24.42
2023-05-14T07:08:57.688Z,24.46
2023-05-14T07:11:02.791Z,24.47
2023-05-14T07:13:08.016Z,24.49
2023-05-14T07:15:13.073Z,24.49
2023-05-14T07:17:18.231Z,24.49
2023-05-14T07:19:23.620Z,24.49
2023-05-14T07:21:28.647Z,24.49
2023-05-14T07:23:33.878Z,24.48
2023-05-14T07:25:39.017Z,24.49
2023-05-14T07:27:44.095Z,24.51
2023-05-14T07:29:49.172Z,24.5
2023-05-14T07:31:54.326Z,24.49
2023-05-14T07:33:59.456Z,24.45
2023-05-14T07:36:04.638Z,24.47
2023-05-14T07:38:09.746Z,24.5
2023-05-14T07:40:14.865Z,24.49
2023-05-14T07:42:28.271Z,24.5
2023-05-14T07:44:41.635Z,24.51
2023-05-14T07:46:46.832Z,24.51
2023-05-14T07:48:51.906Z,24.52
2023-05-14T07:50:57.077Z,24.57
2023-05-14T07:53:02.134Z,24.59
2023-05-14T07:55:07.363Z,24.63
2023-05-14T07:57:12.591Z,24.67
2023-05-14T07:59:17.679Z,24.68
2023-05-14T08:01:22.816Z,24.73
2023-05-14T08:03:28.009Z,24.74
2023-05-14T08:05:33.376Z,24.67
2023-05-14T08:07:38.517Z,24.57
2023-05-14T08:09:43.659Z,24.5
2023-05-14T08:11:48.931Z,24.41
2023-05-14T08:13:54.268Z,24.42
2023-05-14T08:15:59.413Z,24.36
2023-05-14T08:18:04.621Z,24.36
2023-05-14T08:20:10.033Z,24.32
2023-05-14T08:22:15.208Z,24.29
2023-05-14T08:24:20.349Z,24.29
2023-05-14T08:26:25.456Z,24.29
2023-05-14T08:28:30.505Z,24.24
2023-05-14T08:30:35.652Z,24.26
2023-05-14T08:32:41.025Z,24.24
2023-05-14T08:34:46.281Z,24.18
2023-05-14T08:36:51.389Z,24.13
2023-05-14T08:38:56.485Z,24.1
2023-05-14T08:41:01.569Z,24.13
2023-05-14T08:43:06.641Z,24.16
2023-05-14T08:45:12.082Z,24.16
2023-05-14T08:47:17.184Z,24.18
2023-05-14T08:49:22.287Z,24.19
2023-05-14T08:51:27.361Z,24.2
2023-05-14T08:53:32.450Z,24.18
2023-05-14T08:55:37.504Z,24.2
2023-05-14T08:57:42.614Z,24.25
2023-05-14T08:59:47.830Z,24.28
2023-05-14T09:01:52.918Z,24.32
2023-05-14T09:03:58.199Z,24.37
2023-05-14T09:06:03.534Z,24.4
2023-05-14T09:08:08.610Z,24.43
2023-05-14T09:10:13.765Z,24.45
2023-05-14T09:12:18.913Z,24.46
2023-05-14T09:14:24.028Z,24.43
2023-05-14T09:16:29.140Z,24.38
2023-05-14T09:18:34.425Z,24.36
2023-05-14T09:20:39.766Z,24.39
2023-05-14T09:22:44.937Z,24.42
2023-05-14T09:24:50.125Z,24.43
2023-05-14T09:26:55.198Z,24.46
2023-05-14T09:29:00.391Z,24.48
2023-05-14T09:31:05.565Z,24.48
2023-05-14T09:33:10.777Z,24.48
2023-05-14T09:35:15.960Z,24.42
2023-05-14T09:37:21.597Z,24.43
2023-05-14T09:39:26.767Z,24.48
2023-05-14T09:41:31.906Z,24.51
2023-05-14T09:43:37.090Z,24.54
2023-05-14T09:45:42.244Z,24.6
2023-05-14T09:47:47.524Z,24.68
2023-05-14T09:49:53.124Z,24.73
2023-05-14T09:51:58.244Z,24.74
2023-05-14T09:54:03.430Z,24.77
2023-05-14T09:56:08.586Z,24.8
2023-05-14T09:58:13.734Z,24.81
2023-05-14T10:00:18.822Z,24.81
2023-05-14T10:02:24.406Z,24.8
2023-05-14T10:04:29.802Z,24.82
2023-05-14T10:06:35.028Z,24.83
2023-05-14T10:08:40.075Z,24.85
2023-05-14T10:10:45.279Z,24.89
2023-05-14T10:12:50.436Z,24.85
2023-05-14T10:14:55.561Z,24.85
2023-05-14T10:17:00.746Z,24.84
2023-05-14T10:19:06.155Z,24.8
2023-05-14T10:21:11.570Z,24.79
2023-05-14T10:23:16.691Z,24.85
2023-05-14T10:25:21.804Z,24.86
2023-05-14T10:27:26.940Z,24.93
2023-05-14T10:29:32.071Z,24.95
2023-05-14T10:31:37.164Z,24.99
2023-05-14T10:33:42.660Z,25
2023-05-14T10:35:47.727Z,25.06
2023-05-14T10:37:52.798Z,25.11
2023-05-14T10:39:57.933Z,25.13
2023-05-14T10:42:03.085Z,25.13
2023-05-14T10:44:08.205Z,25.17
2023-05-14T10:46:13.347Z,25.2
2023-05-14T10:48:18.697Z,25.21
2023-05-14T10:50:24.292Z,25.22
2023-05-14T10:52:29.978Z,25.28
2023-05-14T10:54:35.170Z,25.27
2023-05-14T10:56:40.269Z,25.32
2023-05-14T10:58:45.332Z,25.31
2023-05-14T11:00:50.377Z,25.33
2023-05-14T11:02:55.596Z,25.37
2023-05-14T11:05:00.877Z,25.37
2023-05-14T11:07:06.007Z,25.36
2023-05-14T11:09:11.135Z,25.33
2023-05-14T11:11:16.338Z,25.3
2023-05-14T11:13:21.428Z,25.26
2023-05-14T11:15:26.531Z,25.25
2023-05-14T11:17:31.708Z,25.23
2023-05-14T11:19:36.976Z,25.21
2023-05-14T11:21:42.145Z,25.23
2023-05-14T11:23:47.394Z,25.24
2023-05-14T11:25:52.465Z,25.34
2023-05-14T11:27:57.816Z,25.39
2023-05-14T11:30:02.951Z,25.44
2023-05-14T11:32:08.133Z,25.49
2023-05-14T11:34:13.672Z,25.54
2023-05-14T11:36:18.726Z,25.62
2023-05-14T11:38:23.759Z,25.7
2023-05-14T11:40:28.728Z,25.77
2023-05-14T11:42:33.718Z,25.85
2023-05-14T11:44:38.713Z,25.9
2023-05-14T11:46:43.755Z,25.94
2023-05-14T11:48:48.821Z,25.93
2023-05-14T11:50:53.992Z,25.91
2023-05-14T11:52:59.102Z,25.9
2023-05-14T11:55:04.155Z,25.89
2023-05-14T11:57:09.269Z,25.92
2023-05-14T11:59:14.336Z,25.93
2023-05-14T12:01:19.495Z,25.88
2023-05-14T12:03:24.768Z,25.89
2023-05-14T12:05:30.730Z,25.94
2023-05-14T12:07:35.802Z,25.97
2023-05-14T12:09:42.591Z,25.95
2023-05-14T12:11:49.477Z,25.98
2023-05-14T12:13:54.681Z,25.98
2023-05-14T12:15:59.916Z,26.04
2023-05-14T12:18:10.982Z,26.1
2023-05-14T12:20:30.292Z,26.13
2023-05-14T12:22:37.034Z,26
2023-05-14T12:24:42.201Z,26
2023-05-14T12:26:47.325Z,25.99
2023-05-14T12:28:52.607Z,25.93
2023-05-14T12:30:57.814Z,25.9
2023-05-14T12:33:03.097Z,25.89
2023-05-14T12:35:08.405Z,25.88
2023-05-14T12:37:13.568Z,25.9
2023-05-14T12:39:18.679Z,25.97
2023-05-14T12:41:23.750Z,26.03
2023-05-14T12:43:28.809Z,26.03
2023-05-14T12:45:33.991Z,26.01
2023-05-14T12:47:39.097Z,26.02
2023-05-14T12:49:44.458Z,26.02
2023-05-14T12:51:51.238Z,26.01
2023-05-14T12:54:28.412Z,26.03
2023-05-14T12:56:33.552Z,26.08
2023-05-14T12:58:38.665Z,26.13
2023-05-14T13:00:43.809Z,26.13
2023-05-14T13:02:49.052Z,26.09
2023-05-14T13:04:54.324Z,26.12
2023-05-14T13:06:59.420Z,26.12
2023-05-14T13:09:04.581Z,26.18
2023-05-14T13:11:09.761Z,26.2
2023-05-14T13:13:14.888Z,26.18
2023-05-14T13:15:20.004Z,26.16
2023-05-14T13:17:25.540Z,26.22
2023-05-14T13:19:30.968Z,26.23
2023-05-14T13:21:36.198Z,26.23
2023-05-14T13:23:41.307Z,26.21
2023-05-14T13:25:48.018Z,26.17
2023-05-14T13:27:54.812Z,26.21
2023-05-14T13:29:59.929Z,26.22
2023-05-14T13:32:05.039Z,26.17
2023-05-14T13:34:10.263Z,26.15
2023-05-14T13:36:15.300Z,26.13
2023-05-14T13:38:20.391Z,26.14
2023-05-14T13:40:25.524Z,26.15
2023-05-14T13:42:30.609Z,26.12
2023-05-14T13:44:35.776Z,26.12
2023-05-14T13:46:40.931Z,26.08
2023-05-14T13:48:46.192Z,26.03
2023-05-14T13:50:51.273Z,26.03
2023-05-14T13:52:56.362Z,26
2023-05-14T13:55:01.636Z,25.99
2023-05-14T13:57:06.873Z,25.98
2023-05-14T13:59:11.881Z,25.95
2023-05-14T14:01:16.908Z,25.92
2023-05-14T14:03:22.115Z,25.85
2023-05-14T14:05:27.402Z,25.8
2023-05-14T14:07:32.745Z,25.81
2023-05-14T14:09:37.838Z,25.83
2023-05-14T14:11:43.136Z,25.85
2023-05-14T14:13:48.339Z,25.88
2023-05-14T14:15:53.525Z,25.87
2023-05-14T14:17:58.846Z,25.86
2023-05-14T14:20:04.364Z,25.85
2023-05-14T14:22:09.593Z,25.81
2023-05-14T14:24:14.687Z,25.74
2023-05-14T14:26:20.452Z,25.63
2023-05-14T14:28:25.567Z,25.5
2023-05-14T14:30:30.689Z,25.46
2023-05-14T14:32:35.822Z,25.41
2023-05-14T14:34:41.101Z,25.41
2023-05-14T14:36:46.311Z,25.45
2023-05-14T14:38:51.505Z,25.43
2023-05-14T14:40:56.565Z,25.4
2023-05-14T14:43:01.728Z,25.35
2023-05-14T14:45:06.961Z,25.3
2023-05-14T14:47:12.049Z,25.24
2023-05-14T14:49:17.137Z,25.23
2023-05-14T14:51:22.226Z,25.15
2023-05-14T14:53:27.283Z,25.16
2023-05-14T14:55:32.438Z,25.17
2023-05-14T14:57:37.526Z,25.19
2023-05-14T14:59:42.641Z,25.22
2023-05-14T15:01:47.860Z,25.24
2023-05-14T15:03:53.328Z,25.23
2023-05-14T15:05:58.523Z,25.19
2023-05-14T15:08:03.631Z,25.13
2023-05-14T15:10:08.924Z,25.11
2023-05-14T15:12:13.988Z,25.12
2023-05-14T15:14:19.082Z,25.1
2023-05-14T15:16:24.164Z,25.13
2023-05-14T15:18:29.436Z,25.13
2023-05-14T15:20:34.789Z,25.13
2023-05-14T15:22:39.897Z,25.09
2023-05-14T15:24:44.956Z,25.04
2023-05-14T15:26:51.001Z,24.98
2023-05-14T15:28:57.979Z,24.94
2023-05-14T15:31:03.157Z,25
2023-05-14T15:33:08.562Z,25.05
2023-05-14T15:35:13.899Z,25.07
2023-05-14T15:37:19.120Z,25.09
2023-05-14T15:39:24.181Z,25.11
2023-05-14T15:41:31.157Z,25.14
2023-05-14T15:43:36.319Z,25.15
2023-05-14T15:45:41.452Z,25.15
2023-05-14T15:47:46.705Z,25.15
2023-05-14T15:49:51.903Z,25.13
2023-05-14T15:51:56.969Z,25.14
2023-05-14T15:54:02.081Z,25.16
2023-05-14T15:56:07.171Z,25.17
2023-05-14T15:58:12.274Z,25.18
2023-05-14T16:00:17.430Z,25.18
2023-05-14T16:02:22.529Z,25.18
2023-05-14T16:04:27.673Z,25.15
2023-05-14T16:06:32.872Z,25.17
2023-05-14T16:08:37.996Z,25.18
2023-05-14T16:10:43.134Z,25.2
2023-05-14T16:12:48.465Z,25.21
2023-05-14T16:14:53.604Z,25.21
2023-05-14T16:16:58.743Z,25.19
2023-05-14T16:19:03.948Z,25.19
2023-05-14T16:21:09.434Z,25.21
2023-05-14T16:23:14.688Z,25.24
2023-05-14T16:25:19.852Z,25.24
2023-05-14T16:27:24.950Z,25.23
2023-05-14T16:29:30.069Z,25.11
2023-05-14T16:31:35.183Z,25.04
2023-05-14T16:33:40.884Z,25.05
2023-05-14T16:35:45.972Z,25.04
2023-05-14T16:37:51.108Z,25.07
2023-05-14T16:39:56.332Z,25.02
2023-05-14T16:42:01.527Z,25.1
2023-05-14T16:44:06.701Z,25.16
2023-05-14T16:46:11.767Z,25.17
2023-05-14T16:48:17.120Z,25.22
2023-05-14T16:50:22.321Z,25.27
2023-05-14T16:52:27.768Z,25.27
2023-05-14T16:54:32.849Z,25.26
2023-05-14T16:56:37.957Z,25.3
2023-05-14T16:58:43.103Z,25.32
2023-05-14T17:00:48.210Z,25.35
2023-05-14T17:02:53.300Z,25.34
2023-05-14T17:04:58.779Z,25.3
2023-05-14T17:07:04.524Z,25.27
2023-05-14T17:09:09.601Z,25.22
2023-05-14T17:11:15.018Z,25.19
2023-05-14T17:13:20.161Z,25.14
2023-05-14T17:15:25.472Z,25.11
2023-05-14T17:17:30.754Z,25.12
2023-05-14T17:19:36.049Z,25.16
2023-05-14T17:21:41.231Z,25.15
2023-05-14T17:23:46.346Z,25.13
2023-05-14T17:25:51.858Z,25.13
2023-05-14T17:27:57.067Z,25.13
2023-05-14T17:30:02.193Z,25.14
2023-05-14T17:32:07.534Z,25.19
2023-05-14T17:34:12.753Z,25.22
2023-05-14T17:36:17.858Z,25.2
2023-05-14T17:38:23.008Z,25.21
2023-05-14T17:40:28.159Z,25.2
2023-05-14T17:42:33.341Z,25.22
2023-05-14T17:44:38.540Z,25.22
2023-05-14T17:46:43.665Z,25.19
2023-05-14T17:48:49.164Z,25.17
2023-05-14T17:50:54.267Z,25.13
2023-05-14T17:52:59.401Z,25.12
2023-05-14T17:55:04.584Z,25.09
2023-05-14T17:57:09.686Z,25.09
2023-05-14T17:59:14.814Z,25.09
2023-05-14T18:01:19.973Z,25.08
2023-05-14T18:03:25.457Z,25.1
2023-05-14T18:05:31.159Z,25.11
2023-05-14T18:07:36.388Z,25.11
2023-05-14T18:09:41.581Z,25.12
2023-05-14T18:11:46.697Z,25.12
2023-05-14T18:13:51.792Z,25.15
2023-05-14T18:15:56.933Z,25.15
2023-05-14T18:18:02.120Z,25.16
2023-05-14T18:20:07.468Z,25.18
2023-05-14T18:22:12.611Z,25.18
2023-05-14T18:24:17.750Z,25.17
2023-05-14T18:26:22.889Z,25.16
2023-05-14T18:28:27.966Z,25.15
2023-05-14T18:30:33.295Z,25.16
2023-05-14T18:32:38.723Z,25.19
2023-05-14T18:34:43.912Z,25.18
2023-05-14T18:36:49.099Z,25.21
2023-05-14T18:38:54.268Z,25.22
2023-05-14T18:40:59.489Z,25.24
2023-05-14T18:43:04.860Z,25.26
2023-05-14T18:45:10.069Z,25.23
2023-05-14T18:47:15.352Z,25.22
2023-05-14T18:49:20.484Z,25.2
2023-05-14T18:51:25.647Z,25.15
2023-05-14T18:53:30.756Z,25.18
2023-05-14T18:55:35.915Z,25.2
2023-05-14T18:57:41.070Z,25.19
2023-05-14T18:59:46.233Z,25.17
2023-05-14T19:01:51.404Z,25.14
2023-05-14T19:03:56.938Z,25.12
2023-05-14T19:06:02.907Z,25.08
2023-05-14T19:08:07.983Z,25.04
2023-05-14T19:10:13.045Z,25.08
2023-05-14T19:12:18.319Z,25.08
2023-05-14T19:14:23.443Z,25.1
2023-05-14T19:16:28.551Z,25.05
2023-05-14T19:18:34.019Z,25.01
2023-05-14T19:20:39.285Z,25
2023-05-14T19:22:44.549Z,25
2023-05-14T19:26:54.952Z,24.98
2023-05-14T19:29:00.122Z,24.98
2023-05-14T19:31:05.212Z,24.94
2023-05-14T19:33:10.528Z,24.88
2023-05-14T19:35:15.749Z,24.89
2023-05-14T19:37:20.862Z,24.89
2023-05-14T19:39:25.963Z,24.85
2023-05-14T19:41:31.144Z,24.84
2023-05-14T19:43:36.227Z,24.84
2023-05-14T19:45:41.405Z,24.73
2023-05-14T19:47:46.831Z,24.67
2023-05-14T19:49:52.139Z,24.63
2023-05-14T19:51:57.249Z,24.63
2023-05-14T19:54:02.412Z,24.61
2023-05-14T19:56:07.615Z,24.56
2023-05-14T19:58:12.801Z,24.48
2023-05-14T20:00:17.995Z,24.42
2023-05-14T20:02:23.081Z,24.34
2023-05-14T20:04:28.345Z,24.26
2023-05-14T20:06:33.489Z,24.23
2023-05-14T20:08:38.630Z,24.21
2023-05-14T20:10:43.864Z,24.18
2023-05-14T20:12:48.917Z,24.13
2023-05-14T20:14:53.991Z,24.11
2023-05-14T20:16:59.060Z,24.07
2023-05-14T20:19:04.323Z,24.08
2023-05-14T20:21:09.576Z,24.06
2023-05-14T20:23:14.642Z,24.06
2023-05-14T20:25:19.740Z,24.05
2023-05-14T20:27:24.786Z,24.05
2023-05-14T20:29:29.910Z,24.04
2023-05-14T20:31:35.180Z,24
2023-05-14T20:33:40.188Z,23.94
2023-05-14T20:35:45.315Z,23.96
2023-05-14T20:37:50.377Z,23.96
2023-05-14T20:39:55.492Z,24.03
2023-05-14T20:42:00.891Z,24.06
2023-05-14T20:44:06.105Z,24.07
2023-05-14T20:46:11.250Z,24.03
2023-05-14T20:48:16.489Z,23.96
2023-05-14T20:50:21.696Z,23.92
2023-05-14T20:52:26.701Z,23.83
2023-05-14T20:54:31.842Z,23.75
2023-05-14T20:56:37.055Z,23.72
2023-05-14T20:58:42.119Z,23.72
2023-05-14T21:00:47.162Z,23.74
2023-05-14T21:02:52.311Z,23.74
2023-05-14T21:04:57.964Z,23.77
2023-05-14T21:07:03.411Z,23.77
2023-05-14T21:09:08.453Z,23.84
2023-05-14T21:11:13.724Z,23.98
2023-05-14T21:13:18.881Z,24.07
2023-05-14T21:15:24.028Z,24.18
2023-05-14T21:17:29.870Z,24.28
2023-05-14T21:19:35.108Z,24.38
2023-05-14T21:21:40.205Z,24.47
2023-05-14T21:23:45.267Z,24.51
2023-05-14T21:25:50.276Z,24.59
2023-05-14T21:27:55.266Z,24.67
2023-05-14T21:30:00.425Z,24.71
2023-05-14T21:32:05.533Z,24.76
2023-05-14T21:34:11.079Z,24.78
2023-05-14T21:36:16.289Z,24.81
2023-05-14T21:38:21.468Z,24.87
2023-05-14T21:40:26.527Z,24.9
2023-05-14T21:42:31.732Z,24.87
2023-05-14T21:44:36.923Z,24.87
2023-05-14T21:46:42.054Z,24.85
2023-05-14T21:48:47.157Z,24.83
2023-05-14T21:50:52.627Z,24.75
2023-05-14T21:52:58.897Z,24.67
2023-05-14T21:55:04.072Z,24.67
2023-05-14T21:57:09.174Z,24.67
2023-05-14T21:59:14.228Z,24.68
2023-05-14T22:01:19.314Z,24.75
2023-05-14T22:03:24.647Z,24.81
2023-05-14T22:05:29.982Z,24.85
2023-05-14T22:07:35.679Z,24.89
2023-05-14T22:09:40.851Z,24.91
2023-05-14T22:11:45.867Z,24.91
2023-05-14T22:13:51.266Z,24.92
2023-05-14T22:16:09.035Z,24.93
2023-05-14T22:18:18.217Z,24.95
2023-05-14T22:20:23.370Z,24.95
2023-05-14T22:22:28.503Z,24.96
2023-05-14T22:24:33.623Z,24.95
2023-05-14T22:26:38.857Z,24.97
2023-05-14T22:28:43.926Z,25
2023-05-14T22:30:49.020Z,25.01
2023-05-14T22:32:54.089Z,25.01
2023-05-14T22:34:59.268Z,25.02
2023-05-14T22:37:04.269Z,25.01
2023-05-14T22:39:11.244Z,25
2023-05-14T22:41:17.770Z,25
2023-05-14T22:43:22.839Z,24.98
2023-05-14T22:45:28.072Z,25.02
2023-05-14T22:47:33.255Z,25.04
2023-05-14T22:49:38.594Z,25.03
2023-05-14T22:51:43.730Z,25.04
2023-05-14T22:53:48.958Z,25.04
2023-05-14T22:55:54.057Z,25.04
2023-05-14T22:57:59.086Z,25.05
2023-05-14T23:00:04.111Z,25.03
2023-05-14T23:02:09.328Z,25.03
2023-05-14T23:04:14.781Z,25.04
2023-05-14T23:06:20.132Z,25.05
2023-05-14T23:08:25.249Z,25.04
2023-05-14T23:10:30.359Z,25.08
2023-05-14T23:12:35.404Z,25.09
2023-05-14T23:14:40.538Z,25.09
2023-05-14T23:16:45.713Z,25.09
2023-05-14T23:18:50.914Z,25.07
2023-05-14T23:20:56.516Z,25.05
2023-05-14T23:23:01.694Z,25.05
2023-05-14T23:25:06.809Z,25.04
2023-05-14T23:27:11.972Z,25.02
2023-05-14T23:29:17.069Z,25.04
2023-05-14T23:31:22.141Z,25.03
2023-05-14T23:33:27.376Z,25.02
2023-05-14T23:35:32.438Z,25.03
2023-05-14T23:37:37.487Z,25.04
2023-05-14T23:39:42.476Z,25.07
2023-05-14T23:41:47.537Z,25.08
2023-05-14T23:43:52.593Z,25.08
2023-05-14T23:45:57.683Z,25.12
2023-05-14T23:48:03.039Z,25.12
2023-05-14T23:50:08.400Z,25.12
2023-05-14T23:52:13.613Z,25.11
2023-05-14T23:54:18.720Z,25.09
2023-05-14T23:56:23.769Z,25.06
2023-05-14T23:58:28.910Z,25.04
